Terminal Aerodrome Forecast
Issued by NWS

Current Version | Previous Version | Text Only | Print | Product List | Glossary On
Versions: 1 2 3 4 5 6 7 8 9 10 11 12 13 14 15 16 17 18 19 20 21 22 23 24 25 26 27 28 29 30
979
FTAK31 PANC 052342
TAFAVD
TAF
PAVD 052342Z 0600/0624 VRB03KT P6SM VCSH BKN080 OVC100
     FM060100 VRB04KT 5SM -RA BR OVC025
     FM061200 VRB02KT 3SM BR BKN002 OVC012
     FM061700 VRB02KT 6SM BR SCT001 OVC015
      AMD LTD TO CLD VIS AND WIND=

USA.gov is the U.S. government's official web portal to all federal, state and local government web resources and services.